Time;durP1;ratioP1;P1;durP2;ratioP2;P2;SDS_P1;SDS_P2;PMS_P1;PMS_P2;Temp;Humidity;BMP_temperature;BMP_pressure;BME280_temperature;BME280_humidity;BME280_pressure;Samples;Min_cycle;Max_cycle;Signal;HPM_P1;HPM_P2
2023/07/20 00:01:56;;;;;;;5.63;4.72;;;15.00;92.90;;;;;;5037115;28;20048;-48
2023/07/20 00:04:24;;;;;;;5.53;4.95;;;15.00;93.00;;;;;;5054945;28;20033;-47
2023/07/20 00:06:49;;;;;;;5.60;4.43;;;15.00;93.00;;;;;;5054655;28;20450;-47
2023/07/20 00:09:16;;;;;;;5.82;5.22;;;15.00;93.00;;;;;;5054587;28;20029;-46
2023/07/20 00:11:52;;;;;;;5.93;4.47;;;15.00;93.10;;;;;;5054613;28;20037;-47
2023/07/20 00:14:19;;;;;;;5.38;4.07;;;15.00;93.10;;;;;;5054475;28;20082;-46
2023/07/20 00:16:49;;;;;;;5.68;4.78;;;15.00;93.10;;;;;;5054398;28;20043;-48
2023/07/20 00:19:16;;;;;;;;;;;15.00;93.20;;;;;;5055228;28;20108;-47
2023/07/20 00:21:42;;;;;;;5.45;4.90;;;15.00;93.10;;;;;;5054001;28;19952;-47
2023/07/20 00:24:11;;;;;;;5.95;4.60;;;15.00;93.20;;;;;;5054810;28;20029;-47
2023/07/20 00:26:38;;;;;;;8.27;5.25;;;15.00;93.10;;;;;;5052854;28;20043;-47
2023/07/20 00:29:04;;;;;;;6.38;4.70;;;15.00;93.10;;;;;;5052972;28;20387;-47
2023/07/20 00:31:30;;;;;;;4.75;4.25;;;15.00;93.10;;;;;;5053071;28;20036;-47
2023/07/20 00:33:57;;;;;;;6.38;4.40;;;15.00;93.10;;;;;;5053847;28;20039;-47
2023/07/20 00:36:23;;;;;;;7.22;4.43;;;15.00;93.10;;;;;;5054232;28;20063;-47
2023/07/20 00:38:50;;;;;;;4.68;3.95;;;14.90;93.10;;;;;;5053785;28;20033;-47
2023/07/20 00:41:17;;;;;;;4.95;4.20;;;14.90;93.10;;;;;;5036389;28;20021;-48
2023/07/20 00:43:44;;;;;;;4.40;3.97;;;14.90;93.10;;;;;;5054107;28;20025;-47
2023/07/20 00:46:11;;;;;;;7.00;4.20;;;14.90;93.10;;;;;;5053956;28;20028;-47
2023/07/20 00:48:39;;;;;;;5.38;4.20;;;14.90;93.10;;;;;;5053832;28;20439;-47
2023/07/20 00:51:09;;;;;;;4.65;4.05;;;14.90;93.10;;;;;;5052524;28;20040;-47
2023/07/20 00:53:35;;;;;;;;;;;14.90;93.10;;;;;;5054451;28;20029;-47
2023/07/20 00:56:03;;;;;;;5.50;3.60;;;14.90;93.10;;;;;;5053553;28;20413;-47
2023/07/20 00:58:30;;;;;;;5.57;2.67;;;14.90;93.00;;;;;;5053121;28;20029;-47
2023/07/20 01:00:57;;;;;;;4.30;3.15;;;14.80;92.90;;;;;;5052753;28;20090;-47
2023/07/20 01:03:25;;;;;;;4.07;2.97;;;14.70;92.90;;;;;;5053761;28;20408;-47
2023/07/20 01:06:08;;;;;;;3.88;2.92;;;14.70;92.80;;;;;;5053415;28;20025;-47
2023/07/20 01:08:57;;;;;;;5.60;2.95;;;14.70;92.80;;;;;;5053488;28;20793;-47
2023/07/20 01:11:45;;;;;;;6.10;3.30;;;14.60;92.70;;;;;;5053378;28;20021;-47
2023/07/20 01:14:13;;;;;;;3.67;3.00;;;14.60;92.70;;;;;;5053010;28;20335;-47
2023/07/20 01:16:39;;;;;;;4.40;3.10;;;14.60;92.70;;;;;;5053397;28;20055;-48
2023/07/20 01:19:06;;;;;;;4.80;2.45;;;14.50;92.70;;;;;;5053306;28;20017;-47
2023/07/20 01:21:58;;;;;;;3.90;2.80;;;14.50;92.80;;;;;;5052988;28;20390;-48
2023/07/20 01:25:05;;;;;;;4.25;2.35;;;14.50;92.60;;;;;;5034821;28;20102;-48
2023/07/20 01:28:01;;;;;;;3.55;2.50;;;14.40;92.60;;;;;;5053083;28;20028;-47
2023/07/20 01:30:48;;;;;;;2.90;2.10;;;14.40;92.40;;;;;;5053057;28;20033;-47
2023/07/20 01:33:17;;;;;;;9.20;2.40;;;14.40;92.50;;;;;;5053296;28;20112;-47
2023/07/20 01:35:45;;;;;;;6.18;3.17;;;14.40;92.50;;;;;;5053054;28;20522;-49
2023/07/20 01:38:13;;;;;;;5.57;2.20;;;14.40;92.50;;;;;;5052976;28;20021;-47
2023/07/20 01:40:43;;;;;;;3.97;2.03;;;14.30;92.40;;;;;;5052893;28;20064;-47
2023/07/20 01:43:11;;;;;;;4.18;2.00;;;14.30;92.40;;;;;;5052909;28;20025;-48
2023/07/20 01:45:38;;;;;;;4.22;2.90;;;14.30;92.30;;;;;;5052274;28;20040;-47
2023/07/20 01:48:05;;;;;;;3.40;2.10;;;14.30;92.20;;;;;;5052797;28;20044;-47
2023/07/20 01:50:34;;;;;;;6.63;2.10;;;14.20;92.20;;;;;;5052426;28;20025;-47
2023/07/20 01:53:01;;;;;;;3.55;2.20;;;14.20;92.20;;;;;;5051867;28;20055;-47
2023/07/20 01:55:28;;;;;;;6.90;2.50;;;14.10;92.20;;;;;;5052492;28;20462;-47
2023/07/20 01:57:55;;;;;;;5.97;1.85;;;14.10;92.00;;;;;;5052815;28;20103;-47
2023/07/20 02:00:24;;;;;;;7.60;1.90;;;14.00;92.10;;;;;;5052800;28;20076;-47
2023/07/20 02:02:53;;;;;;;2.97;1.75;;;14.00;92.20;;;;;;5035251;28;20021;-47
2023/07/20 02:05:19;;;;;;;3.53;1.77;;;14.00;92.20;;;;;;5035498;28;20040;-47
2023/07/20 02:07:45;;;;;;;2.97;1.90;;;14.00;92.10;;;;;;5051776;28;20033;-48
2023/07/20 02:10:12;;;;;;;7.20;1.80;;;14.00;92.00;;;;;;5054425;28;20108;-47
2023/07/20 02:12:38;;;;;;;2.95;1.75;;;13.90;91.90;;;;;;5057020;28;20033;-49
2023/07/20 02:15:05;;;;;;;2.40;1.52;;;13.90;91.80;;;;;;5038753;28;20485;-47
2023/07/20 02:17:32;;;;;;;4.38;2.00;;;13.90;91.80;;;;;;5056739;28;20021;-48
2023/07/20 02:20:03;;;;;;;7.45;1.77;;;13.80;91.70;;;;;;5056692;28;20032;-48
2023/07/20 02:22:30;;;;;;;3.15;1.90;;;13.80;91.50;;;;;;5056456;28;20065;-47
2023/07/20 02:24:59;;;;;;;3.13;1.63;;;13.70;91.40;;;;;;5055835;28;20032;-46
2023/07/20 02:27:26;;;;;;;4.00;1.73;;;13.60;91.40;;;;;;5056628;28;20060;-47
2023/07/20 02:29:52;;;;;;;4.57;1.98;;;13.60;91.40;;;;;;5056226;28;20378;-47
2023/07/20 02:32:19;;;;;;;3.08;1.58;;;13.50;91.40;;;;;;5056464;28;20391;-47
2023/07/20 02:34:45;;;;;;;3.15;1.52;;;13.50;91.40;;;;;;5056501;28;20103;-47
2023/07/20 02:37:13;;;;;;;7.50;1.83;;;13.50;91.40;;;;;;5055398;28;20025;-47
2023/07/20 02:39:40;;;;;;;3.55;1.80;;;13.50;91.40;;;;;;5055350;28;20112;-48
2023/07/20 02:42:06;;;;;;;3.78;1.67;;;13.40;91.20;;;;;;5056190;28;20020;-46
2023/07/20 02:44:33;;;;;;;5.18;1.98;;;13.40;91.20;;;;;;5056238;28;20029;-48
2023/07/20 02:47:00;;;;;;;3.83;1.35;;;13.40;91.10;;;;;;5055919;28;20025;-48
2023/07/20 02:49:29;;;;;;;4.15;1.65;;;13.30;91.00;;;;;;5056428;28;20028;-46
2023/07/20 02:51:57;;;;;;;;;;;13.30;90.90;;;;;;5056679;28;20029;-48
2023/07/20 02:54:23;;;;;;;3.63;1.50;;;13.20;90.90;;;;;;5038566;28;20311;-46
2023/07/20 02:56:50;;;;;;;6.13;1.45;;;13.20;90.90;;;;;;5056218;28;20037;-46
2023/07/20 02:59:17;;;;;;;6.47;1.88;;;13.20;91.10;;;;;;5056068;28;20040;-47
2023/07/20 03:01:44;;;;;;;3.45;1.85;;;13.10;90.90;;;;;;5075740;28;20024;-46
2023/07/20 03:04:12;;;;;;;7.07;2.10;;;13.10;90.80;;;;;;5075781;28;20035;-48
2023/07/20 03:06:39;;;;;;;6.40;2.38;;;13.00;90.90;;;;;;5066758;28;20183;-48
2023/07/20 03:09:07;;;;;;;5.40;2.40;;;13.00;90.90;;;;;;5055854;28;20104;-47
2023/07/20 03:11:34;;;;;;;8.75;2.80;;;13.00;90.80;;;;;;5055775;28;20105;-47
2023/07/20 03:14:01;;;;;;;8.65;2.10;;;12.90;90.70;;;;;;5055445;28;20029;-47
2023/07/20 03:16:27;;;;;;;6.93;2.30;;;12.90;90.70;;;;;;5055594;28;20083;-47
2023/07/20 03:18:54;;;;;;;9.07;2.33;;;12.90;90.60;;;;;;5055817;28;20442;-46
2023/07/20 03:21:21;;;;;;;6.18;2.80;;;12.90;90.60;;;;;;5045524;28;20049;-47
2023/07/20 03:23:47;;;;;;;9.40;2.85;;;12.80;90.60;;;;;;5035397;28;20629;-47
2023/07/20 03:26:14;;;;;;;6.57;2.60;;;12.80;90.80;;;;;;5035497;28;20018;-46
2023/07/20 03:28:41;;;;;;;5.10;2.42;;;12.70;90.80;;;;;;5035381;28;20072;-47
2023/07/20 03:31:08;;;;;;;7.60;2.42;;;12.60;90.90;;;;;;5035458;28;20036;-47
2023/07/20 03:33:35;;;;;;;5.03;2.45;;;12.70;91.10;;;;;;5035264;28;20502;-46
2023/07/20 03:36:02;;;;;;;9.48;2.75;;;12.70;91.30;;;;;;5035299;28;20025;-46
2023/07/20 03:38:30;;;;;;;6.95;2.58;;;12.70;91.40;;;;;;5035265;28;20148;-46
2023/07/20 03:41:02;;;;;;;6.72;2.92;;;12.80;91.60;;;;;;5035378;28;20485;-47
2023/07/20 03:43:29;;;;;;;8.63;2.90;;;12.80;91.60;;;;;;5035405;28;20057;-47
2023/07/20 03:46:06;;;;;;;3.97;2.80;;;12.80;91.60;;;;;;5034116;28;20505;-46
2023/07/20 03:48:33;;;;;;;4.68;2.33;;;12.80;91.50;;;;;;5034697;28;20038;-46
2023/07/20 03:51:00;;;;;;;5.63;2.20;;;12.80;91.40;;;;;;5034708;28;20466;-46
2023/07/20 03:53:26;;;;;;;6.20;3.00;;;12.80;91.40;;;;;;5033549;28;20048;-46
2023/07/20 03:55:53;;;;;;;6.05;3.38;;;12.70;91.40;;;;;;5034135;28;20029;-46
2023/07/20 03:58:23;;;;;;;4.40;3.22;;;12.80;91.40;;;;;;5034615;28;20037;-46
2023/07/20 04:00:51;;;;;;;8.65;3.67;;;12.80;91.60;;;;;;5034361;28;20518;-45
2023/07/20 04:03:19;;;;;;;7.63;2.83;;;12.90;91.60;;;;;;5034213;28;20030;-48
2023/07/20 04:05:48;;;;;;;4.28;2.40;;;12.90;91.80;;;;;;5033178;28;20112;-49
2023/07/20 04:08:14;;;;;;;6.63;2.25;;;12.90;92.00;;;;;;5034573;28;20112;-48
2023/07/20 04:10:44;;;;;;;9.40;2.70;;;13.00;92.20;;;;;;5033781;28;20025;-50
2023/07/20 04:13:11;;;;;;;9.50;2.88;;;13.20;92.30;;;;;;5034837;28;20033;-47
2023/07/20 04:15:37;;;;;;;5.53;2.70;;;13.20;92.20;;;;;;5034142;28;20048;-47
2023/07/20 04:18:04;;;;;;;3.50;2.25;;;13.30;92.20;;;;;;5034508;28;20021;-46
2023/07/20 04:20:30;;;;;;;6.82;2.65;;;13.40;92.20;;;;;;5036391;28;20356;-46
2023/07/20 04:22:57;;;;;;;4.90;2.65;;;13.50;92.20;;;;;;5053499;28;20043;-46
2023/07/20 04:25:22;;;;;;;4.78;2.22;;;13.50;92.20;;;;;;5054220;28;20025;-46
2023/07/20 04:27:49;;;;;;;5.30;3.03;;;13.60;92.30;;;;;;5054642;28;20044;-46
2023/07/20 04:30:20;;;;;;;5.18;2.65;;;13.70;92.30;;;;;;5053233;28;20485;-46
2023/07/20 04:32:46;;;;;;;5.65;2.33;;;13.80;92.40;;;;;;5036025;28;20060;-46
2023/07/20 04:35:37;;;;;;;5.78;2.22;;;13.90;92.30;;;;;;5067659;28;20085;-46
2023/07/20 04:38:05;;;;;;;4.63;2.05;;;13.90;92.20;;;;;;5045797;28;20045;-47
2023/07/20 04:40:32;;;;;;;6.60;2.33;;;13.90;92.20;;;;;;5054019;28;20036;-47
2023/07/20 04:42:59;;;;;;;4.50;2.97;;;13.90;92.00;;;;;;5053795;28;20021;-46
2023/07/20 04:45:25;;;;;;;7.28;2.70;;;14.00;91.60;;;;;;5053890;28;20465;-48
2023/07/20 04:47:52;;;;;;;5.03;2.58;;;14.00;91.50;;;;;;5053845;28;20021;-46
2023/07/20 04:50:19;;;;;;;5.20;2.30;;;14.00;91.30;;;;;;5053867;28;20035;-46
2023/07/20 04:52:48;;;;;;;6.13;2.70;;;14.00;91.30;;;;;;5053495;28;20025;-48
2023/07/20 04:55:15;;;;;;;3.38;2.30;;;14.00;91.20;;;;;;5053929;28;20041;-46
2023/07/20 04:57:41;;;;;;;7.88;2.75;;;14.10;91.30;;;;;;5053638;28;20430;-47
2023/07/20 05:00:13;;;;;;;8.35;3.15;;;14.10;91.20;;;;;;5053648;28;20043;-47
2023/07/20 05:02:42;;;;;;;7.75;3.15;;;14.10;91.20;;;;;;5053295;28;20367;-46
2023/07/20 05:05:09;;;;;;;3.97;2.47;;;14.00;91.00;;;;;;5053020;28;20037;-46
2023/07/20 05:07:35;;;;;;;6.15;2.80;;;14.00;91.20;;;;;;5053636;28;20040;-47
2023/07/20 05:10:01;;;;;;;9.13;3.08;;;14.00;91.20;;;;;;5053550;28;20044;-49
2023/07/20 05:12:28;;;;;;;8.48;2.85;;;14.00;91.10;;;;;;5053229;28;20040;-46
2023/07/20 05:14:55;;;;;;;7.07;3.20;;;13.90;91.30;;;;;;5053361;28;20102;-46
2023/07/20 05:17:22;;;;;;;4.22;2.47;;;14.00;91.40;;;;;;5052253;28;20025;-47
2023/07/20 05:19:49;;;;;;;5.45;3.17;;;14.00;91.50;;;;;;5053134;28;20056;-47
2023/07/20 05:22:18;;;;;;;6.18;2.72;;;14.00;91.50;;;;;;5052298;28;20136;-46
2023/07/20 05:24:45;;;;;;;5.22;3.10;;;14.00;91.60;;;;;;5053253;28;20025;-46
2023/07/20 05:27:12;;;;;;;5.97;2.67;;;14.00;91.60;;;;;;5053376;28;20040;-47
2023/07/20 05:29:47;;;;;;;4.70;2.10;;;14.00;91.60;;;;;;5052943;28;20029;-46
2023/07/20 05:32:14;;;;;;;6.68;2.90;;;14.00;91.70;;;;;;5053313;28;20099;-46
2023/07/20 05:34:41;;;;;;;4.95;2.38;;;14.10;91.80;;;;;;5053204;28;20034;-48
2023/07/20 05:37:06;;;;;;;8.00;4.30;;;14.10;91.90;;;;;;5053097;28;20033;-47
2023/07/20 05:39:33;;;;;;;7.43;3.13;;;14.10;91.90;;;;;;5052928;28;20032;-46
2023/07/20 05:42:03;;;;;;;7.05;2.72;;;14.20;92.00;;;;;;5052924;28;20033;-46
2023/07/20 05:44:30;;;;;;;7.45;2.28;;;14.30;92.10;;;;;;5052641;28;20119;-46
2023/07/20 05:46:56;;;;;;;8.93;2.95;;;14.40;92.10;;;;;;5053084;28;20039;-48
2023/07/20 05:49:23;;;;;;;8.85;2.85;;;14.50;92.10;;;;;;5051109;28;20115;-47
2023/07/20 05:51:48;;;;;;;8.23;3.42;;;14.70;92.20;;;;;;5053450;28;20096;-48
2023/07/20 05:54:15;;;;;;;9.07;2.80;;;14.80;92.10;;;;;;5051981;28;20120;-46
2023/07/20 05:56:42;;;;;;;8.60;3.00;;;14.90;91.80;;;;;;5053278;28;20029;-47
2023/07/20 05:59:12;;;;;;;5.20;2.70;;;14.80;91.20;;;;;;5052840;28;20024;-48
2023/07/20 06:01:39;;;;;;;6.68;3.70;;;14.90;90.80;;;;;;5053000;28;20027;-47
2023/07/20 06:04:08;;;;;;;11.52;3.38;;;14.90;90.30;;;;;;5051910;28;20037;-48
2023/07/20 06:06:35;;;;;;;11.88;3.30;;;14.90;90.20;;;;;;5052670;28;20053;-46
2023/07/20 06:09:05;;;;;;;11.15;3.63;;;15.10;90.10;;;;;;5052840;28;20431;-47
2023/07/20 06:11:32;;;;;;;7.82;3.47;;;15.10;90.10;;;;;;5052584;28;20120;-51
2023/07/20 06:13:59;;;;;;;7.13;3.25;;;15.20;90.30;;;;;;5052475;28;20335;-47
2023/07/20 06:16:26;;;;;;;6.20;2.92;;;15.20;89.60;;;;;;5052827;28;20358;-47
2023/07/20 06:18:53;;;;;;;10.95;3.50;;;15.00;87.60;;;;;;5052964;28;20323;-47
2023/07/20 06:21:20;;;;;;;5.53;2.50;;;15.20;87.80;;;;;;5043102;28;20355;-49
2023/07/20 06:23:46;;;;;;;9.40;3.67;;;15.30;87.10;;;;;;5032601;28;20026;-47
2023/07/20 06:26:13;;;;;;;8.73;3.08;;;15.40;86.10;;;;;;5032472;28;20025;-47
2023/07/20 06:28:40;;;;;;;7.93;2.88;;;15.60;86.40;;;;;;5032433;28;20437;-47
2023/07/20 06:31:05;;;;;;;10.30;2.78;;;15.80;85.70;;;;;;5032784;28;20033;-49
2023/07/20 06:33:32;;;;;;;7.35;2.47;;;16.00;86.00;;;;;;5032878;28;20041;-48
2023/07/20 06:36:01;;;;;;;10.23;3.15;;;16.30;85.40;;;;;;5015810;28;20053;-47
2023/07/20 06:38:29;;;;;;;8.32;2.70;;;16.40;84.80;;;;;;5015066;28;20116;-48
2023/07/20 06:40:56;;;;;;;5.68;2.70;;;16.40;85.20;;;;;;5032451;28;20022;-48
2023/07/20 06:43:23;;;;;;;12.35;3.40;;;16.30;84.90;;;;;;5031712;28;20036;-48
2023/07/20 06:45:53;;;;;;;8.18;2.85;;;16.40;85.10;;;;;;5032452;28;20033;-47
2023/07/20 06:48:24;;;;;;;8.45;2.50;;;16.30;85.50;;;;;;5032347;28;20036;-48
2023/07/20 06:50:51;;;;;;;7.82;2.63;;;16.40;86.30;;;;;;5032435;28;20026;-48
2023/07/20 06:53:17;;;;;;;7.65;2.45;;;16.40;84.70;;;;;;5032465;28;20431;-50
2023/07/20 06:55:44;;;;;;;8.52;2.95;;;16.60;83.90;;;;;;5033241;28;20033;-50
2023/07/20 06:58:11;;;;;;;7.80;2.63;;;16.70;83.00;;;;;;5036014;28;20029;-48
2023/07/20 07:00:38;;;;;;;9.25;2.03;;;16.50;81.40;;;;;;5027885;28;20057;-48
2023/07/20 07:03:04;;;;;;;8.88;2.05;;;16.30;81.00;;;;;;5054772;28;20044;-49
2023/07/20 07:05:30;;;;;;;4.95;2.30;;;16.10;81.10;;;;;;5042319;28;20037;-53
2023/07/20 07:07:56;;;;;;;9.32;2.83;;;16.00;82.10;;;;;;5035689;28;20480;-49
2023/07/20 07:10:22;;;;;;;7.25;2.63;;;16.10;82.90;;;;;;5035550;28;20034;-51
2023/07/20 07:12:48;;;;;;;8.02;2.38;;;16.40;82.80;;;;;;5034948;28;20501;-52
2023/07/20 07:15:14;;;;;;;4.82;1.83;;;16.80;82.20;;;;;;5036247;28;20033;-48
2023/07/20 07:17:43;;;;;;;7.65;2.30;;;16.90;79.50;;;;;;5035719;28;20025;-49
2023/07/20 07:20:11;;;;;;;6.95;2.05;;;17.00;80.30;;;;;;5036033;28;20042;-50
2023/07/20 07:22:38;;;;;;;6.32;1.83;;;16.90;79.30;;;;;;5054371;28;20049;-53
2023/07/20 07:25:05;;;;;;;8.40;2.13;;;16.80;79.40;;;;;;5055402;28;20073;-50
2023/07/20 07:27:32;;;;;;;9.75;2.00;;;16.60;79.10;;;;;;5055332;28;20035;-50
2023/07/20 07:29:59;;;;;;;6.82;2.53;;;16.40;78.20;;;;;;5037790;28;20031;-51
2023/07/20 07:32:26;;;;;;;5.50;1.75;;;16.40;78.70;;;;;;5055182;28;20025;-51
2023/07/20 07:34:58;;;;;;;4.90;1.38;;;16.50;78.00;;;;;;5055238;28;20033;-51
2023/07/20 07:37:25;;;;;;;4.47;1.20;;;16.60;77.50;;;;;;5055309;28;20025;-50
2023/07/20 07:39:51;;;;;;;6.82;1.45;;;16.70;76.10;;;;;;5055207;28;20027;-49
2023/07/20 07:42:18;;;;;;;7.30;1.35;;;16.60;76.20;;;;;;5055045;28;20021;-51
2023/07/20 07:44:45;;;;;;;2.92;1.05;;;16.90;75.40;;;;;;5055037;28;20542;-50
2023/07/20 07:47:12;;;;;;;3.20;1.20;;;17.50;73.40;;;;;;5054996;28;20473;-54
2023/07/20 07:49:39;;;;;;;3.42;1.10;;;17.90;70.70;;;;;;5054980;28;20380;-49
2023/07/20 07:52:06;;;;;;;4.47;0.80;;;18.10;69.40;;;;;;5054842;28;20040;-52
2023/07/20 07:54:33;;;;;;;3.40;1.20;;;18.40;70.60;;;;;;5053568;28;20032;-54
2023/07/20 07:56:59;;;;;;;4.57;1.13;;;18.90;69.10;;;;;;5055235;28;20032;-49
2023/07/20 07:59:26;;;;;;;3.53;1.23;;;19.00;64.30;;;;;;5053628;28;20036;-50
2023/07/20 08:01:56;;;;;;;5.35;2.05;;;18.60;67.10;;;;;;5054970;28;20117;-49
2023/07/20 08:04:23;;;;;;;4.65;1.08;;;18.40;67.90;;;;;;5021231;28;20461;-50
2023/07/20 08:06:49;;;;;;;3.35;1.05;;;18.50;67.70;;;;;;5054494;28;20036;-50
2023/07/20 08:09:15;;;;;;;4.13;1.50;;;18.40;69.20;;;;;;5054732;28;20021;-51
2023/07/20 08:11:42;;;;;;;1.88;0.65;;;18.60;72.00;;;;;;5054631;28;20387;-51
2023/07/20 08:14:08;;;;;;;6.18;1.30;;;19.40;71.30;;;;;;5054475;28;20068;-49
2023/07/20 08:16:35;;;;;;;2.65;0.77;;;19.50;66.90;;;;;;5053268;28;20585;-54
2023/07/20 08:19:02;;;;;;;5.22;1.23;;;19.00;66.40;;;;;;5054150;28;20723;-51
2023/07/20 08:21:29;;;;;;;4.63;1.48;;;18.90;68.20;;;;;;5053647;28;20052;-51
2023/07/20 08:23:58;;;;;;;5.53;1.73;;;19.40;67.40;;;;;;5053817;28;20031;-56
2023/07/20 08:26:26;;;;;;;4.15;1.20;;;19.80;67.80;;;;;;5074151;28;20044;-50
2023/07/20 08:28:55;;;;;;;3.33;0.88;;;19.60;64.70;;;;;;5056656;28;20032;-51
2023/07/20 08:31:22;;;;;;;5.73;1.30;;;19.90;66.60;;;;;;5074395;28;20052;-50
2023/07/20 08:33:48;;;;;;;4.93;1.35;;;19.90;66.80;;;;;;5056306;28;20298;-51
2023/07/20 08:36:16;;;;;;;3.75;1.15;;;20.40;64.90;;;;;;5054174;28;20130;-50
2023/07/20 08:38:43;;;;;;;6.03;1.23;;;20.50;64.40;;;;;;5054225;28;20086;-51
2023/07/20 08:41:10;;;;;;;3.40;1.08;;;20.10;62.90;;;;;;5054013;28;20472;-52
2023/07/20 08:43:40;;;;;;;5.25;1.65;;;20.10;64.10;;;;;;5053861;28;20036;-49
2023/07/20 08:46:08;;;;;;;4.38;1.13;;;19.90;66.60;;;;;;5052835;28;20045;-53
2023/07/20 08:48:35;;;;;;;2.67;0.77;;;19.20;67.10;;;;;;5053782;28;20032;-53
2023/07/20 08:51:07;;;;;;;3.28;0.80;;;18.60;69.40;;;;;;5051632;28;20119;-50
2023/07/20 08:53:34;;;;;;;5.82;1.50;;;18.90;70.00;;;;;;5053855;28;20439;-50
2023/07/20 08:56:02;;;;;;;6.75;1.33;;;19.40;70.10;;;;;;5052354;28;20063;-50
2023/07/20 08:58:29;;;;;;;7.22;1.60;;;20.00;68.40;;;;;;5053393;28;20108;-54
2023/07/20 09:00:59;;;;;;;7.90;1.98;;;20.30;65.30;;;;;;5052716;28;20534;-51
2023/07/20 09:03:25;;;;;;;8.68;1.30;;;20.30;66.10;;;;;;5053911;28;20063;-51
2023/07/20 09:05:52;;;;;;;6.05;1.23;;;20.00;64.70;;;;;;5053572;28;20035;-55
2023/07/20 09:08:19;;;;;;;3.40;0.80;;;19.80;63.90;;;;;;5053712;28;20710;-50
2023/07/20 09:10:44;;;;;;;4.45;1.02;;;20.20;64.00;;;;;;5053360;28;20470;-48
2023/07/20 09:13:15;;;;;;;2.80;0.65;;;20.40;63.90;;;;;;5053070;28;20029;-55
2023/07/20 09:16:05;;;;;;;3.83;0.93;;;20.40;64.80;;;;;;5052534;28;20062;-50
2023/07/20 09:18:34;;;;;;;3.55;0.82;;;20.80;63.90;;;;;;5053137;28;20025;-52
2023/07/20 09:21:07;;;;;;;4.15;1.02;;;20.60;62.50;;;;;;5052878;28;20049;-50
2023/07/20 09:23:55;;;;;;;5.53;1.00;;;20.70;63.10;;;;;;5053154;28;20033;-49
2023/07/20 09:26:22;;;;;;;3.28;0.82;;;20.80;61.40;;;;;;5053429;28;20025;-50
2023/07/20 09:28:52;;;;;;;4.00;1.00;;;20.90;61.20;;;;;;5052189;28;20078;-53
2023/07/20 09:31:18;;;;;;;;;;;20.90;62.10;;;;;;5053702;28;20055;-50
2023/07/20 09:33:46;;;;;;;4.25;1.30;;;20.70;62.00;;;;;;5053021;28;20292;-49
2023/07/20 09:36:11;;;;;;;5.78;1.35;;;20.80;62.70;;;;;;5052066;28;20029;-51
2023/07/20 09:38:47;;;;;;;6.47;1.45;;;20.90;63.40;;;;;;5053250;28;20017;-50
2023/07/20 09:41:15;;;;;;;4.80;1.25;;;21.20;63.70;;;;;;5052985;28;20029;-51
2023/07/20 09:43:42;;;;;;;5.47;1.42;;;21.40;66.00;;;;;;5052499;28;20029;-52
2023/07/20 09:46:09;;;;;;;7.50;2.03;;;21.20;65.00;;;;;;5052974;28;20087;-49
2023/07/20 09:48:38;;;;;;;5.00;1.25;;;20.50;67.30;;;;;;5052793;28;20045;-50
2023/07/20 09:51:06;;;;;;;;;;;19.80;65.90;;;;;;5053483;28;20348;-50
2023/07/20 09:53:34;;;;;;;6.18;1.20;;;19.00;69.40;;;;;;5052762;28;19917;-50
2023/07/20 09:56:02;;;;;;;8.50;2.25;;;18.80;71.00;;;;;;5052701;28;20051;-53
2023/07/20 09:58:31;;;;;;;6.60;1.77;;;19.30;71.30;;;;;;5053105;28;20032;-55
2023/07/20 10:01:00;;;;;;;4.55;1.27;;;19.90;68.40;;;;;;5051568;28;20116;-54
2023/07/20 10:03:30;;;;;;;4.03;1.00;;;20.10;66.10;;;;;;5053146;28;20021;-52
2023/07/20 10:06:03;;;;;;;;;;;19.90;66.00;;;;;;5053375;28;20033;-53
2023/07/20 10:08:31;;;;;;;3.97;1.08;;;20.40;65.00;;;;;;5052615;28;20003;-51
2023/07/20 10:11:04;;;;;;;4.22;0.70;;;20.40;61.90;;;;;;5052655;28;20037;-50
2023/07/20 10:13:34;;;;;;;2.90;0.90;;;20.70;62.40;;;;;;5051651;28;20033;-50
2023/07/20 10:16:30;;;;;;;4.10;1.45;;;21.00;63.10;;;;;;5052121;28;20032;-53
2023/07/20 10:19:17;;;;;;;4.80;1.23;;;21.40;62.20;;;;;;5035292;28;20041;-50
2023/07/20 10:21:51;;;;;;;5.63;1.17;;;21.00;61.90;;;;;;5052296;28;20887;-54
2023/07/20 10:24:18;;;;;;;7.50;1.40;;;21.30;61.30;;;;;;5052576;28;20051;-51
2023/07/20 10:26:45;;;;;;;7.75;1.10;;;21.00;59.50;;;;;;5052622;28;20109;-50
2023/07/20 10:29:13;;;;;;;4.80;1.00;;;21.00;59.70;;;;;;5052702;28;20025;-53
2023/07/20 10:31:41;;;;;;;4.13;1.00;;;21.10;58.20;;;;;;5054640;28;20094;-50
2023/07/20 10:34:07;;;;;;;3.45;0.82;;;20.90;59.60;;;;;;5056044;28;20455;-52
2023/07/20 10:36:51;;;;;;;5.60;1.42;;;21.10;59.20;;;;;;5038971;28;20025;-51
2023/07/20 10:39:36;;;;;;;3.13;1.02;;;21.20;59.90;;;;;;5056578;28;20432;-51
2023/07/20 10:42:11;;;;;;;3.47;0.77;;;21.50;59.10;;;;;;5055345;28;20075;-50
2023/07/20 10:44:40;;;;;;;5.60;1.35;;;21.60;58.20;;;;;;5056916;28;20156;-49
2023/07/20 10:47:13;;;;;;;7.45;1.25;;;21.50;59.10;;;;;;5056108;28;20807;-51
2023/07/20 10:50:00;;;;;;;4.35;1.30;;;21.60;61.40;;;;;;5056097;28;20446;-52
2023/07/20 10:52:37;;;;;;;4.25;0.90;;;21.70;62.20;;;;;;5038574;28;20078;-49
2023/07/20 10:55:31;;;;;;;4.15;1.10;;;21.40;61.50;;;;;;5056089;28;20021;-53
2023/07/20 10:58:15;;;;;;;3.15;1.17;;;21.40;60.40;;;;;;5036633;28;20052;-53
2023/07/20 11:01:00;;;;;;;3.20;0.60;;;21.40;59.40;;;;;;5055702;28;20106;-52
2023/07/20 11:03:50;;;;;;;3.83;1.10;;;21.40;58.10;;;;;;5055688;28;20108;-49
2023/07/20 11:06:25;;;;;;;5.30;1.08;;;21.50;59.10;;;;;;5038531;28;20454;-54
2023/07/20 11:09:15;;;;;;;6.53;1.52;;;21.30;58.50;;;;;;5056045;28;20033;-52
2023/07/20 11:11:44;;;;;;;5.53;1.33;;;20.90;59.40;;;;;;5055481;28;20025;-52
2023/07/20 11:14:28;;;;;;;2.83;0.60;;;20.80;59.40;;;;;;5054934;28;20116;-51
2023/07/20 11:16:55;;;;;;;4.82;0.88;;;20.80;61.00;;;;;;5054329;28;20277;-49
2023/07/20 11:19:26;;;;;;;4.88;1.00;;;20.70;60.20;;;;;;5056022;28;20108;-51
2023/07/20 11:22:11;;;;;;;4.10;1.38;;;20.40;58.90;;;;;;5055139;28;20085;-56
2023/07/20 11:24:43;;;;;;;5.70;0.85;;;20.80;61.40;;;;;;5055612;28;20136;-51
2023/07/20 11:27:10;;;;;;;5.28;0.88;;;21.20;60.50;;;;;;5054542;28;20021;-55
2023/07/20 11:29:38;;;;;;;4.28;1.08;;;21.30;58.00;;;;;;5055493;28;20395;-53
2023/07/20 11:32:07;;;;;;;5.13;1.10;;;21.30;59.20;;;;;;5037933;28;20078;-51
2023/07/20 11:34:35;;;;;;;;;;;21.30;56.90;;;;;;5055967;28;20068;-53
2023/07/20 11:37:03;;;;;;;2.80;1.00;;;21.10;55.40;;;;;;5055330;28;19905;-51
2023/07/20 11:39:30;;;;;;;3.75;1.10;;;21.10;58.20;;;;;;5055342;28;20025;-51
2023/07/20 11:41:58;;;;;;;5.68;1.10;;;21.10;57.50;;;;;;5054907;28;20308;-51
2023/07/20 11:44:27;;;;;;;3.00;0.85;;;20.90;58.20;;;;;;5054852;28;20040;-54
2023/07/20 11:47:10;;;;;;;5.90;1.75;;;20.90;60.40;;;;;;5054694;28;20031;-51
2023/07/20 11:49:38;;;;;;;3.78;1.40;;;20.80;60.90;;;;;;5055025;28;20498;-50
2023/07/20 11:52:07;;;;;;;6.95;1.45;;;21.10;60.50;;;;;;5054510;28;20024;-51
2023/07/20 11:54:35;;;;;;;5.55;0.88;;;21.00;59.20;;;;;;5054783;28;20061;-50
2023/07/20 11:57:03;;;;;;;5.35;1.33;;;20.90;60.40;;;;;;5053774;28;20355;-51
2023/07/20 11:59:31;;;;;;;3.95;0.93;;;20.90;61.10;;;;;;5054573;28;20473;-52
2023/07/20 12:02:03;;;;;;;2.88;0.85;;;20.80;61.90;;;;;;5055003;28;20110;-51
2023/07/20 12:04:33;;;;;;;6.03;1.10;;;20.50;58.30;;;;;;5054696;28;20056;-52
2023/07/20 12:07:00;;;;;;;3.38;1.15;;;20.20;60.60;;;;;;5054752;28;20061;-51
2023/07/20 12:09:27;;;;;;;5.22;1.35;;;20.20;61.20;;;;;;5054801;28;20460;-51
2023/07/20 12:11:53;;;;;;;3.47;1.20;;;20.50;60.80;;;;;;5053653;28;20037;-50
2023/07/20 12:14:19;;;;;;;3.13;0.93;;;20.40;61.20;;;;;;5054591;28;20040;-49
2023/07/20 12:16:53;;;;;;;5.97;1.20;;;20.40;61.60;;;;;;5054419;28;20461;-53
2023/07/20 12:19:19;;;;;;;4.55;1.08;;;20.50;60.40;;;;;;5054046;28;20036;-50
2023/07/20 12:21:46;;;;;;;5.30;1.15;;;20.60;60.60;;;;;;5053795;28;20045;-49
2023/07/20 12:24:13;;;;;;;5.35;1.45;;;20.70;60.40;;;;;;5054614;28;20458;-50
2023/07/20 12:26:40;;;;;;;6.68;1.25;;;20.80;62.00;;;;;;5054307;28;20036;-52
2023/07/20 12:29:06;;;;;;;2.90;0.70;;;20.90;59.60;;;;;;5054614;28;20434;-52
2023/07/20 12:31:36;;;;;;;3.80;0.98;;;20.80;59.30;;;;;;5054457;28;20017;-50
2023/07/20 12:34:07;;;;;;;4.57;1.00;;;20.70;58.80;;;;;;5036532;28;20039;-54
2023/07/20 12:36:34;;;;;;;3.92;1.23;;;20.60;62.00;;;;;;5053930;28;20032;-50
2023/07/20 12:39:01;;;;;;;5.70;1.33;;;20.40;58.90;;;;;;5054569;28;20032;-50
2023/07/20 12:41:27;;;;;;;3.15;1.20;;;20.30;60.30;;;;;;5053192;28;20524;-50
2023/07/20 12:43:53;;;;;;;9.18;2.20;;;20.40;61.30;;;;;;5054035;28;20037;-51
2023/07/20 12:46:20;;;;;;;3.40;0.82;;;20.10;62.40;;;;;;5053501;28;20518;-50
2023/07/20 12:48:47;;;;;;;8.60;1.42;;;20.20;59.70;;;;;;5059938;28;20072;-52
2023/07/20 12:51:13;;;;;;;7.32;1.60;;;20.20;60.80;;;;;;5053929;28;20086;-51
2023/07/20 12:53:41;;;;;;;6.00;1.73;;;20.20;63.10;;;;;;5053213;28;20054;-54
2023/07/20 12:56:08;;;;;;;5.68;1.40;;;20.20;61.80;;;;;;5036158;28;20033;-50
2023/07/20 12:58:36;;;;;;;5.22;1.30;;;20.20;62.80;;;;;;5053492;28;20029;-53